Time,TemperatureF,DewpointF,PressureIn,WindDirection,WindDirectionDegrees,WindSpeedMPH,WindSpeedGustMPH,Humidity,HourlyPrecipIn,Conditions,Clouds,dailyrainin,SoftwareType,DateUTC
2013-03-24 00:04:00,67.3,9.0,29.49,SW,225,0.0,0.0,1,0.00,,,0.00,WUHU216HW,2013-03-24 04:04:00,
2013-03-24 00:34:00,67.3,9.0,29.49,WSW,248,0.0,0.0,1,0.00,,,0.00,WUHU216HW,2013-03-24 04:34:00,
2013-03-24 01:04:00,68.2,9.6,29.46,SSE,158,0.0,0.0,1,0.00,,,0.00,WUHU216HW,2013-03-24 05:04:00,
2013-03-24 01:34:00,68.8,10.1,29.45,East,90,0.0,0.0,1,0.00,,,0.00,WUHU216HW,2013-03-24 05:34:00,
2013-03-24 02:04:00,68.9,10.2,29.43,North,0,0.0,0.0,1,0.00,,,0.00,WUHU216HW,2013-03-24 06:04:00,
2013-03-24 02:34:00,69.3,10.5,29.42,NNE,23,0.0,0.0,1,0.00,,,0.00,WUHU216HW,2013-03-24 06:34:00,
2013-03-24 03:04:00,69.7,10.7,29.41,SE,135,0.0,0.0,1,0.00,,,0.00,WUHU216HW,2013-03-24 07:04:00,
2013-03-24 03:34:00,68.8,10.1,29.39,WSW,248,0.0,0.0,1,0.00,,,0.00,WUHU216HW,2013-03-24 07:34:00,
2013-03-24 04:04:00,68.8,10.1,29.38,SW,225,0.0,0.0,1,0.00,,,0.00,WUHU216HW,2013-03-24 08:04:00,
2013-03-24 04:34:00,68.8,10.1,29.36,West,270,0.0,0.0,1,0.00,,,0.00,WUHU216HW,2013-03-24 08:34:00,
2013-03-24 05:04:00,69.3,10.5,29.36,SW,225,0.0,0.0,1,0.00,,,0.00,WUHU216HW,2013-03-24 09:04:00,
2013-03-24 05:34:00,68.9,10.2,29.34,SW,225,0.0,0.0,1,0.00,,,0.00,WUHU216HW,2013-03-24 09:34:00,
2013-03-24 06:04:00,69.1,10.3,29.33,SSE,158,0.0,0.0,1,0.00,,,0.00,WUHU216HW,2013-03-24 10:04:00,
2013-03-24 06:34:00,68.9,10.2,29.32,SW,225,0.2,0.2,1,0.00,,,0.00,WUHU216HW,2013-03-24 10:34:00,
2013-03-24 07:04:00,68.6,9.9,29.32,SW,225,0.0,0.0,1,0.00,,,0.00,WUHU216HW,2013-03-24 11:04:00,
2013-03-24 07:34:00,68.8,10.1,29.32,SSE,158,0.0,0.0,1,0.00,,,0.00,WUHU216HW,2013-03-24 11:34:00,
2013-03-24 08:04:00,69.1,10.3,29.31,SW,225,0.0,0.0,1,0.00,,,0.00,WUHU216HW,2013-03-24 12:04:00,
2013-03-24 08:34:00,70.4,11.3,29.31,SW,225,0.4,0.4,1,0.00,,,0.00,WUHU216HW,2013-03-24 12:34:00,
2013-03-24 09:04:00,71.3,12.0,29.34,SW,225,0.4,0.4,1,0.00,,,0.00,WUHU216HW,2013-03-24 13:04:00,
2013-03-24 09:34:00,72.5,13.0,29.36,WSW,248,0.4,0.4,1,0.00,,,0.00,WUHU216HW,2013-03-24 13:34:00,
2013-03-24 10:04:00,73.4,13.7,29.36,SW,225,0.9,0.9,1,0.00,,,0.00,WUHU216HW,2013-03-24 14:04:00,
2013-03-24 10:34:00,75.1,14.9,29.35,WSW,248,0.2,0.2,1,0.00,,,0.00,WUHU216HW,2013-03-24 14:34:00,
2013-03-24 11:04:00,76.9,16.2,29.34,WSW,248,3.4,3.4,1,0.00,,,0.00,WUHU216HW,2013-03-24 15:04:00,
2013-03-24 11:34:00,76.5,15.9,29.34,WSW,248,4.7,4.7,1,0.00,,,0.00,WUHU216HW,2013-03-24 15:34:00,
2013-03-24 12:04:00,80.6,19.1,29.33,SSW,203,3.8,3.8,1,0.00,,,0.00,WUHU216HW,2013-03-24 16:04:00,
2013-03-24 12:34:00,79.6,18.2,29.33,WSW,248,1.1,1.1,1,0.00,,,0.00,WUHU216HW,2013-03-24 16:34:00,
2013-03-24 13:04:00,80.6,19.1,29.31,West,270,1.6,1.6,1,0.00,,,0.00,WUHU216HW,2013-03-24 17:04:00,
2013-03-24 13:34:00,81.5,19.8,29.30,SE,135,10.1,10.1,1,0.00,,,0.00,WUHU216HW,2013-03-24 17:34:00,
2013-03-24 14:04:00,78.8,17.6,29.29,WSW,248,5.4,5.4,1,0.00,,,0.00,WUHU216HW,2013-03-24 18:04:00,
2013-03-24 14:34:00,75.6,15.2,29.28,WSW,248,0.9,0.9,1,0.35,,,0.00,WUHU216HW,2013-03-24 18:34:00,
2013-03-24 15:00:00,69.1,10.3,29.27,SW,225,0.2,0.2,1,1.06,,,0.35,WUHU216HW,2013-03-24 19:00:00,
2013-03-24 15:10:00,69.1,10.3,29.27,SW,225,0.2,0.2,1,1.06,,,1.06,WUHU216HW,2013-03-24 19:10:00,
2013-03-24 15:35:00,67.0,8.6,29.28,WSW,248,9.8,9.8,1,0.71,,,1.06,WUHU216HW,2013-03-24 19:35:00,
2013-03-24 16:04:00,67.7,9.3,29.27,WSW,248,1.1,1.1,1,0.06,,,1.08,WUHU216HW,2013-03-24 20:04:00,
2013-03-24 16:34:00,72.7,13.2,29.27,West,270,3.1,3.1,1,0.04,,,1.13,WUHU216HW,2013-03-24 20:34:00,
2013-03-24 17:04:00,76.0,15.5,29.25,West,270,3.6,3.6,1,0.00,,,1.13,WUHU216HW,2013-03-24 21:04:00,
2013-03-24 17:34:00,77.0,16.4,29.25,West,270,3.1,3.1,1,0.00,,,1.13,WUHU216HW,2013-03-24 21:34:00,
2013-03-24 18:04:00,77.0,16.4,29.25,West,270,3.1,3.1,1,0.00,,,1.13,WUHU216HW,2013-03-24 22:04:00,
2013-03-24 18:34:00,77.0,16.4,29.26,WSW,248,3.4,3.4,1,0.00,,,1.13,WUHU216HW,2013-03-24 22:34:00,
2013-03-24 19:04:00,75.2,14.9,29.27,SW,225,4.0,4.0,1,0.00,,,1.13,WUHU216HW,2013-03-24 23:04:00,
2013-03-24 19:34:00,74.0,14.0,29.27,West,270,4.9,4.9,1,0.00,,,1.13,WUHU216HW,2013-03-24 23:34:00,
2013-03-24 20:04:00,72.9,13.2,29.28,WSW,248,0.4,0.4,1,0.00,,,1.13,WUHU216HW,2013-03-25 00:04:00,
2013-03-24 20:34:00,72.5,13.0,29.30,WSW,248,2.5,2.5,1,0.00,,,1.13,WUHU216HW,2013-03-25 00:34:00,
2013-03-24 21:04:00,72.4,12.8,29.31,West,270,1.3,1.3,1,0.00,,,1.13,WUHU216HW,2013-03-25 01:04:00,
2013-03-24 21:34:00,71.8,12.4,29.32,NNW,338,2.5,2.5,1,0.00,,,1.13,WUHU216HW,2013-03-25 01:34:00,
2013-03-24 22:04:00,71.5,12.1,29.33,SSW,203,3.4,3.4,1,0.00,,,1.13,WUHU216HW,2013-03-25 02:04:00,
2013-03-24 22:34:00,70.4,11.3,29.34,WSW,248,3.1,3.1,1,0.00,,,1.13,WUHU216HW,2013-03-25 02:34:00,
2013-03-24 23:04:00,69.8,10.8,29.34,WSW,248,2.5,2.5,1,0.00,,,1.13,WUHU216HW,2013-03-25 03:04:00,
2013-03-24 23:34:00,69.3,10.5,29.34,WSW,248,0.4,0.4,1,0.00,,,1.13,WUHU216HW,2013-03-25 03:34:00,